sensor_id;sensor_type;location;lat;lon;timestamp;P1;durP1;ratioP1;P2;durP2;ratioP2
966;SDS011;56108;48.730;9.304;2023-08-06T00:01:42;15.05;;;10.20;;
966;SDS011;56108;48.730;9.304;2023-08-06T00:03:50;15.43;;;10.45;;
966;SDS011;56108;48.730;9.304;2023-08-06T00:05:59;12.70;;;9.50;;
966;SDS011;56108;48.730;9.304;2023-08-06T00:08:10;12.90;;;9.18;;
966;SDS011;56108;48.730;9.304;2023-08-06T00:10:18;14.45;;;10.90;;
966;SDS011;56108;48.730;9.304;2023-08-06T00:12:26;12.40;;;9.27;;
966;SDS011;56108;48.730;9.304;2023-08-06T00:14:34;13.20;;;9.35;;
966;SDS011;56108;48.730;9.304;2023-08-06T00:16:43;13.15;;;10.50;;
966;SDS011;56108;48.730;9.304;2023-08-06T00:18:51;13.73;;;9.50;;
966;SDS011;56108;48.730;9.304;2023-08-06T00:21:00;12.50;;;9.40;;
966;SDS011;56108;48.730;9.304;2023-08-06T00:23:11;12.00;;;9.13;;
966;SDS011;56108;48.730;9.304;2023-08-06T00:25:19;13.10;;;8.75;;
966;SDS011;56108;48.730;9.304;2023-08-06T00:27:27;12.90;;;9.18;;
966;SDS011;56108;48.730;9.304;2023-08-06T00:29:35;11.13;;;8.45;;
966;SDS011;56108;48.730;9.304;2023-08-06T00:31:44;12.32;;;8.20;;
966;SDS011;56108;48.730;9.304;2023-08-06T00:33:52;13.02;;;9.30;;
966;SDS011;56108;48.730;9.304;2023-08-06T00:36:01;10.20;;;8.02;;
966;SDS011;56108;48.730;9.304;2023-08-06T00:38:12;11.80;;;7.75;;
966;SDS011;56108;48.730;9.304;2023-08-06T00:40:20;9.70;;;7.60;;
966;SDS011;56108;48.730;9.304;2023-08-06T00:42:29;10.02;;;7.63;;
966;SDS011;56108;48.730;9.304;2023-08-06T00:44:37;10.45;;;7.57;;
966;SDS011;56108;48.730;9.304;2023-08-06T00:46:46;12.00;;;7.70;;
966;SDS011;56108;48.730;9.304;2023-08-06T00:48:55;9.43;;;7.68;;
966;SDS011;56108;48.730;9.304;2023-08-06T00:51:03;12.02;;;8.38;;
966;SDS011;56108;48.730;9.304;2023-08-06T00:53:15;11.20;;;8.27;;
966;SDS011;56108;48.730;9.304;2023-08-06T00:55:24;12.43;;;7.85;;
966;SDS011;56108;48.730;9.304;2023-08-06T00:57:32;10.10;;;8.23;;
966;SDS011;56108;48.730;9.304;2023-08-06T00:59:41;11.13;;;7.32;;
966;SDS011;56108;48.730;9.304;2023-08-06T01:01:49;9.63;;;7.70;;
966;SDS011;56108;48.730;9.304;2023-08-06T01:03:59;10.05;;;8.40;;
966;SDS011;56108;48.730;9.304;2023-08-06T01:06:07;9.70;;;8.52;;
966;SDS011;56108;48.730;9.304;2023-08-06T01:08:19;7.30;;;6.53;;
966;SDS011;56108;48.730;9.304;2023-08-06T01:10:40;9.50;;;6.82;;
966;SDS011;56108;48.730;9.304;2023-08-06T01:13:02;8.05;;;5.60;;
966;SDS011;56108;48.730;9.304;2023-08-06T01:15:17;6.78;;;5.85;;
966;SDS011;56108;48.730;9.304;2023-08-06T01:17:29;8.00;;;5.82;;
966;SDS011;56108;48.730;9.304;2023-08-06T01:19:38;7.38;;;5.28;;
966;SDS011;56108;48.730;9.304;2023-08-06T01:21:49;6.85;;;5.60;;
966;SDS011;56108;48.730;9.304;2023-08-06T01:23:58;7.93;;;6.18;;
966;SDS011;56108;48.730;9.304;2023-08-06T01:26:09;8.88;;;6.25;;
966;SDS011;56108;48.730;9.304;2023-08-06T01:28:22;8.70;;;6.25;;
966;SDS011;56108;48.730;9.304;2023-08-06T01:30:40;5.88;;;4.95;;
966;SDS011;56108;48.730;9.304;2023-08-06T01:32:48;4.40;;;3.85;;
966;SDS011;56108;48.730;9.304;2023-08-06T01:35:04;5.20;;;4.70;;
966;SDS011;56108;48.730;9.304;2023-08-06T01:37:16;5.22;;;4.70;;
966;SDS011;56108;48.730;9.304;2023-08-06T01:39:24;7.25;;;5.20;;
966;SDS011;56108;48.730;9.304;2023-08-06T01:41:33;6.28;;;5.68;;
966;SDS011;56108;48.730;9.304;2023-08-06T01:43:41;5.55;;;4.65;;
966;SDS011;56108;48.730;9.304;2023-08-06T01:45:49;7.55;;;5.18;;
966;SDS011;56108;48.730;9.304;2023-08-06T01:47:58;5.80;;;4.97;;
966;SDS011;56108;48.730;9.304;2023-08-06T01:50:06;5.28;;;4.78;;
966;SDS011;56108;48.730;9.304;2023-08-06T01:52:17;7.35;;;5.40;;
966;SDS011;56108;48.730;9.304;2023-08-06T01:54:26;5.55;;;4.78;;
966;SDS011;56108;48.730;9.304;2023-08-06T01:56:34;6.10;;;5.47;;
966;SDS011;56108;48.730;9.304;2023-08-06T01:58:42;6.05;;;4.70;;
966;SDS011;56108;48.730;9.304;2023-08-06T02:00:51;5.47;;;4.97;;
966;SDS011;56108;48.730;9.304;2023-08-06T02:03:00;5.43;;;4.93;;
966;SDS011;56108;48.730;9.304;2023-08-06T02:05:09;4.75;;;4.35;;
966;SDS011;56108;48.730;9.304;2023-08-06T02:07:20;4.72;;;4.20;;
966;SDS011;56108;48.730;9.304;2023-08-06T02:09:28;5.70;;;4.15;;
966;SDS011;56108;48.730;9.304;2023-08-06T02:11:37;3.80;;;3.40;;
966;SDS011;56108;48.730;9.304;2023-08-06T02:13:45;4.90;;;4.40;;
966;SDS011;56108;48.730;9.304;2023-08-06T02:15:56;4.05;;;3.63;;
966;SDS011;56108;48.730;9.304;2023-08-06T02:18:04;6.13;;;3.97;;
966;SDS011;56108;48.730;9.304;2023-08-06T02:20:13;5.57;;;3.75;;
966;SDS011;56108;48.730;9.304;2023-08-06T02:22:24;5.25;;;3.67;;
966;SDS011;56108;48.730;9.304;2023-08-06T02:24:32;6.30;;;4.15;;
966;SDS011;56108;48.730;9.304;2023-08-06T02:26:40;4.30;;;3.72;;
966;SDS011;56108;48.730;9.304;2023-08-06T02:28:50;4.55;;;3.05;;
966;SDS011;56108;48.730;9.304;2023-08-06T02:30:58;3.47;;;2.83;;
966;SDS011;56108;48.730;9.304;2023-08-06T02:33:06;3.10;;;2.80;;
966;SDS011;56108;48.730;9.304;2023-08-06T02:35:15;3.63;;;3.10;;
966;SDS011;56108;48.730;9.304;2023-08-06T02:37:26;3.65;;;3.35;;
966;SDS011;56108;48.730;9.304;2023-08-06T02:39:34;2.90;;;2.67;;
966;SDS011;56108;48.730;9.304;2023-08-06T02:41:44;3.33;;;3.03;;
966;SDS011;56108;48.730;9.304;2023-08-06T02:43:53;3.90;;;3.33;;
966;SDS011;56108;48.730;9.304;2023-08-06T02:46:01;3.75;;;3.33;;
966;SDS011;56108;48.730;9.304;2023-08-06T02:48:11;4.10;;;2.72;;
966;SDS011;56108;48.730;9.304;2023-08-06T02:50:19;3.15;;;2.60;;
966;SDS011;56108;48.730;9.304;2023-08-06T02:52:30;2.90;;;2.60;;
966;SDS011;56108;48.730;9.304;2023-08-06T02:54:38;3.80;;;3.42;;
966;SDS011;56108;48.730;9.304;2023-08-06T02:56:49;3.40;;;2.50;;
966;SDS011;56108;48.730;9.304;2023-08-06T02:59:07;5.03;;;3.35;;
966;SDS011;56108;48.730;9.304;2023-08-06T03:01:33;2.97;;;2.58;;
966;SDS011;56108;48.730;9.304;2023-08-06T03:03:50;2.50;;;2.30;;
966;SDS011;56108;48.730;9.304;2023-08-06T03:06:05;3.13;;;2.85;;
966;SDS011;56108;48.730;9.304;2023-08-06T03:08:23;5.22;;;3.05;;
966;SDS011;56108;48.730;9.304;2023-08-06T03:10:31;5.65;;;3.40;;
966;SDS011;56108;48.730;9.304;2023-08-06T03:12:42;3.30;;;2.97;;
966;SDS011;56108;48.730;9.304;2023-08-06T03:14:50;2.80;;;2.60;;
966;SDS011;56108;48.730;9.304;2023-08-06T03:16:58;2.75;;;2.55;;
966;SDS011;56108;48.730;9.304;2023-08-06T03:19:07;3.97;;;3.10;;
966;SDS011;56108;48.730;9.304;2023-08-06T03:21:15;2.80;;;2.10;;
966;SDS011;56108;48.730;9.304;2023-08-06T03:23:26;2.75;;;2.25;;
966;SDS011;56108;48.730;9.304;2023-08-06T03:25:35;3.22;;;2.67;;
966;SDS011;56108;48.730;9.304;2023-08-06T03:27:44;3.10;;;2.70;;
966;SDS011;56108;48.730;9.304;2023-08-06T03:29:55;3.17;;;2.88;;
966;SDS011;56108;48.730;9.304;2023-08-06T03:32:07;4.03;;;2.92;;
966;SDS011;56108;48.730;9.304;2023-08-06T03:34:17;3.70;;;3.03;;
966;SDS011;56108;48.730;9.304;2023-08-06T03:36:27;2.92;;;2.30;;
966;SDS011;56108;48.730;9.304;2023-08-06T03:38:38;4.53;;;3.05;;
966;SDS011;56108;48.730;9.304;2023-08-06T03:40:49;3.35;;;3.00;;
966;SDS011;56108;48.730;9.304;2023-08-06T03:42:57;2.75;;;2.55;;
966;SDS011;56108;48.730;9.304;2023-08-06T03:45:06;2.42;;;2.22;;
966;SDS011;56108;48.730;9.304;2023-08-06T03:47:16;3.33;;;2.78;;
966;SDS011;56108;48.730;9.304;2023-08-06T03:49:28;2.90;;;2.17;;
966;SDS011;56108;48.730;9.304;2023-08-06T03:51:37;4.00;;;2.65;;
966;SDS011;56108;48.730;9.304;2023-08-06T03:53:48;2.60;;;2.40;;
966;SDS011;56108;48.730;9.304;2023-08-06T03:55:56;3.15;;;2.33;;
966;SDS011;56108;48.730;9.304;2023-08-06T03:58:07;3.08;;;2.67;;
966;SDS011;56108;48.730;9.304;2023-08-06T04:00:15;2.42;;;2.22;;
966;SDS011;56108;48.730;9.304;2023-08-06T04:02:30;2.83;;;2.30;;
966;SDS011;56108;48.730;9.304;2023-08-06T04:04:38;2.28;;;2.10;;
966;SDS011;56108;48.730;9.304;2023-08-06T04:06:46;1.90;;;1.80;;
966;SDS011;56108;48.730;9.304;2023-08-06T04:08:57;2.80;;;2.53;;
966;SDS011;56108;48.730;9.304;2023-08-06T04:11:05;2.40;;;2.20;;
966;SDS011;56108;48.730;9.304;2023-08-06T04:13:14;2.22;;;2.03;;
966;SDS011;56108;48.730;9.304;2023-08-06T04:15:22;2.60;;;2.08;;
966;SDS011;56108;48.730;9.304;2023-08-06T04:17:30;2.47;;;2.05;;
966;SDS011;56108;48.730;9.304;2023-08-06T04:19:39;2.42;;;1.95;;
966;SDS011;56108;48.730;9.304;2023-08-06T04:21:47;2.78;;;2.17;;
966;SDS011;56108;48.730;9.304;2023-08-06T04:23:58;2.60;;;2.15;;
966;SDS011;56108;48.730;9.304;2023-08-06T04:26:07;4.57;;;1.90;;
966;SDS011;56108;48.730;9.304;2023-08-06T04:28:15;2.20;;;1.90;;
966;SDS011;56108;48.730;9.304;2023-08-06T04:30:24;1.98;;;1.60;;
966;SDS011;56108;48.730;9.304;2023-08-06T04:32:32;1.90;;;1.77;;
966;SDS011;56108;48.730;9.304;2023-08-06T04:34:40;2.00;;;1.80;;
966;SDS011;56108;48.730;9.304;2023-08-06T04:36:49;2.47;;;2.17;;
966;SDS011;56108;48.730;9.304;2023-08-06T04:38:54;1.65;;;1.55;;
966;SDS011;56108;48.730;9.304;2023-08-06T04:41:05;2.60;;;2.38;;
966;SDS011;56108;48.730;9.304;2023-08-06T04:43:14;3.63;;;1.98;;
966;SDS011;56108;48.730;9.304;2023-08-06T04:45:23;4.32;;;2.13;;
966;SDS011;56108;48.730;9.304;2023-08-06T04:47:31;1.45;;;1.35;;
966;SDS011;56108;48.730;9.304;2023-08-06T04:49:39;1.40;;;1.30;;
966;SDS011;56108;48.730;9.304;2023-08-06T04:51:48;3.47;;;2.13;;
966;SDS011;56108;48.730;9.304;2023-08-06T04:53:59;1.77;;;1.63;;
966;SDS011;56108;48.730;9.304;2023-08-06T04:56:08;2.03;;;1.90;;
966;SDS011;56108;48.730;9.304;2023-08-06T04:58:16;2.00;;;1.75;;
966;SDS011;56108;48.730;9.304;2023-08-06T05:00:24;1.75;;;1.65;;
966;SDS011;56108;48.730;9.304;2023-08-06T05:02:30;5.68;;;1.77;;
966;SDS011;56108;48.730;9.304;2023-08-06T05:04:39;1.45;;;1.35;;
966;SDS011;56108;48.730;9.304;2023-08-06T05:06:48;2.67;;;1.13;;
966;SDS011;56108;48.730;9.304;2023-08-06T05:08:59;3.85;;;1.35;;
966;SDS011;56108;48.730;9.304;2023-08-06T05:11:04;1.83;;;1.63;;
966;SDS011;56108;48.730;9.304;2023-08-06T05:13:12;3.60;;;1.55;;
966;SDS011;56108;48.730;9.304;2023-08-06T05:15:21;1.17;;;1.10;;
966;SDS011;56108;48.730;9.304;2023-08-06T05:17:30;1.92;;;1.60;;
966;SDS011;56108;48.730;9.304;2023-08-06T05:19:35;0.90;;;0.90;;
966;SDS011;56108;48.730;9.304;2023-08-06T05:21:44;1.30;;;1.20;;
966;SDS011;56108;48.730;9.304;2023-08-06T05:23:52;1.77;;;1.45;;
966;SDS011;56108;48.730;9.304;2023-08-06T05:26:03;1.45;;;0.95;;
966;SDS011;56108;48.730;9.304;2023-08-06T05:28:11;5.53;;;1.27;;
966;SDS011;56108;48.730;9.304;2023-08-06T05:30:21;1.30;;;1.20;;
966;SDS011;56108;48.730;9.304;2023-08-06T05:32:29;1.38;;;0.80;;
966;SDS011;56108;48.730;9.304;2023-08-06T05:34:37;1.08;;;0.70;;
966;SDS011;56108;48.730;9.304;2023-08-06T05:36:46;2.70;;;1.05;;
966;SDS011;56108;48.730;9.304;2023-08-06T05:38:54;1.08;;;1.00;;
966;SDS011;56108;48.730;9.304;2023-08-06T05:41:05;1.40;;;0.93;;
966;SDS011;56108;48.730;9.304;2023-08-06T05:43:13;1.15;;;0.90;;
966;SDS011;56108;48.730;9.304;2023-08-06T05:45:19;1.23;;;1.05;;
966;SDS011;56108;48.730;9.304;2023-08-06T05:47:27;0.95;;;0.90;;
966;SDS011;56108;48.730;9.304;2023-08-06T05:49:36;1.85;;;0.98;;
966;SDS011;56108;48.730;9.304;2023-08-06T05:51:44;1.38;;;0.93;;
966;SDS011;56108;48.730;9.304;2023-08-06T05:53:53;1.27;;;0.85;;
966;SDS011;56108;48.730;9.304;2023-08-06T05:56:01;0.70;;;0.70;;
966;SDS011;56108;48.730;9.304;2023-08-06T05:58:12;0.80;;;0.80;;
966;SDS011;56108;48.730;9.304;2023-08-06T06:00:21;0.95;;;0.75;;
966;SDS011;56108;48.730;9.304;2023-08-06T06:02:29;0.40;;;0.40;;
966;SDS011;56108;48.730;9.304;2023-08-06T06:04:37;1.40;;;0.70;;
966;SDS011;56108;48.730;9.304;2023-08-06T06:06:47;1.00;;;0.88;;
966;SDS011;56108;48.730;9.304;2023-08-06T06:08:55;0.73;;;0.45;;
966;SDS011;56108;48.730;9.304;2023-08-06T06:11:04;0.70;;;0.70;;
966;SDS011;56108;48.730;9.304;2023-08-06T06:13:15;0.50;;;0.50;;
966;SDS011;56108;48.730;9.304;2023-08-06T06:15:23;0.60;;;0.60;;
966;SDS011;56108;48.730;9.304;2023-08-06T06:17:31;0.88;;;0.88;;
966;SDS011;56108;48.730;9.304;2023-08-06T06:19:39;0.90;;;0.80;;
966;SDS011;56108;48.730;9.304;2023-08-06T06:21:48;0.63;;;0.50;;
966;SDS011;56108;48.730;9.304;2023-08-06T06:24:00;0.80;;;0.60;;
966;SDS011;56108;48.730;9.304;2023-08-06T06:26:09;0.70;;;0.70;;
966;SDS011;56108;48.730;9.304;2023-08-06T06:28:21;0.80;;;0.68;;
966;SDS011;56108;48.730;9.304;2023-08-06T06:30:29;0.85;;;0.70;;
966;SDS011;56108;48.730;9.304;2023-08-06T06:32:37;1.38;;;1.08;;
966;SDS011;56108;48.730;9.304;2023-08-06T06:34:46;1.85;;;0.70;;
966;SDS011;56108;48.730;9.304;2023-08-06T06:36:54;0.50;;;0.50;;
966;SDS011;56108;48.730;9.304;2023-08-06T06:39:02;0.60;;;0.60;;
966;SDS011;56108;48.730;9.304;2023-08-06T06:41:11;1.30;;;0.63;;
966;SDS011;56108;48.730;9.304;2023-08-06T06:43:22;0.85;;;0.85;;
966;SDS011;56108;48.730;9.304;2023-08-06T06:45:31;1.08;;;0.75;;
966;SDS011;56108;48.730;9.304;2023-08-06T06:47:40;4.68;;;0.70;;
966;SDS011;56108;48.730;9.304;2023-08-06T06:49:48;0.68;;;0.50;;
966;SDS011;56108;48.730;9.304;2023-08-06T06:52:00;0.60;;;0.60;;
966;SDS011;56108;48.730;9.304;2023-08-06T06:54:05;0.88;;;0.55;;
966;SDS011;56108;48.730;9.304;2023-08-06T06:56:16;0.60;;;0.60;;
966;SDS011;56108;48.730;9.304;2023-08-06T06:58:27;0.57;;;0.55;;
966;SDS011;56108;48.730;9.304;2023-08-06T07:00:35;0.60;;;0.60;;
966;SDS011;56108;48.730;9.304;2023-08-06T07:02:43;1.10;;;0.90;;
966;SDS011;56108;48.730;9.304;2023-08-06T07:04:58;0.60;;;0.60;;
966;SDS011;56108;48.730;9.304;2023-08-06T07:07:07;1.48;;;0.50;;
966;SDS011;56108;48.730;9.304;2023-08-06T07:09:15;0.60;;;0.60;;
966;SDS011;56108;48.730;9.304;2023-08-06T07:11:24;2.65;;;0.47;;
966;SDS011;56108;48.730;9.304;2023-08-06T07:13:34;0.50;;;0.50;;
966;SDS011;56108;48.730;9.304;2023-08-06T07:15:42;0.60;;;0.50;;
966;SDS011;56108;48.730;9.304;2023-08-06T07:17:51;0.75;;;0.60;;
966;SDS011;56108;48.730;9.304;2023-08-06T07:19:59;0.63;;;0.50;;
966;SDS011;56108;48.730;9.304;2023-08-06T07:22:07;0.60;;;0.60;;
966;SDS011;56108;48.730;9.304;2023-08-06T07:24:15;1.75;;;1.00;;
966;SDS011;56108;48.730;9.304;2023-08-06T07:26:23;1.13;;;0.38;;
966;SDS011;56108;48.730;9.304;2023-08-06T07:28:34;0.30;;;0.30;;
966;SDS011;56108;48.730;9.304;2023-08-06T07:30:43;0.40;;;0.40;;
966;SDS011;56108;48.730;9.304;2023-08-06T07:32:52;0.52;;;0.52;;
966;SDS011;56108;48.730;9.304;2023-08-06T07:35:00;0.75;;;0.40;;
966;SDS011;56108;48.730;9.304;2023-08-06T07:37:08;0.40;;;0.30;;
966;SDS011;56108;48.730;9.304;2023-08-06T07:39:16;0.70;;;0.50;;
966;SDS011;56108;48.730;9.304;2023-08-06T07:41:25;0.47;;;0.40;;
966;SDS011;56108;48.730;9.304;2023-08-06T07:43:47;0.30;;;0.30;;
966;SDS011;56108;48.730;9.304;2023-08-06T07:45:57;0.38;;;0.38;;
966;SDS011;56108;48.730;9.304;2023-08-06T07:48:07;0.40;;;0.40;;
966;SDS011;56108;48.730;9.304;2023-08-06T07:50:16;0.43;;;0.40;;
966;SDS011;56108;48.730;9.304;2023-08-06T07:52:24;0.30;;;0.30;;
966;SDS011;56108;48.730;9.304;2023-08-06T07:54:32;0.40;;;0.30;;
966;SDS011;56108;48.730;9.304;2023-08-06T07:56:40;0.43;;;0.22;;
966;SDS011;56108;48.730;9.304;2023-08-06T07:58:51;0.40;;;0.30;;
966;SDS011;56108;48.730;9.304;2023-08-06T08:00:59;0.30;;;0.22;;
966;SDS011;56108;48.730;9.304;2023-08-06T08:03:09;0.80;;;0.40;;
966;SDS011;56108;48.730;9.304;2023-08-06T08:05:17;0.60;;;0.30;;
966;SDS011;56108;48.730;9.304;2023-08-06T08:07:26;0.30;;;0.20;;
966;SDS011;56108;48.730;9.304;2023-08-06T08:09:35;0.40;;;0.35;;
966;SDS011;56108;48.730;9.304;2023-08-06T08:11:43;0.30;;;0.30;;
966;SDS011;56108;48.730;9.304;2023-08-06T08:13:54;0.50;;;0.40;;
966;SDS011;56108;48.730;9.304;2023-08-06T08:16:02;0.40;;;0.20;;
966;SDS011;56108;48.730;9.304;2023-08-06T08:18:11;0.30;;;0.30;;
966;SDS011;56108;48.730;9.304;2023-08-06T08:20:20;0.40;;;0.28;;
966;SDS011;56108;48.730;9.304;2023-08-06T08:22:28;0.40;;;0.20;;
966;SDS011;56108;48.730;9.304;2023-08-06T08:24:36;0.40;;;0.20;;
966;SDS011;56108;48.730;9.304;2023-08-06T08:26:44;0.40;;;0.20;;
966;SDS011;56108;48.730;9.304;2023-08-06T08:28:55;0.50;;;0.30;;
966;SDS011;56108;48.730;9.304;2023-08-06T08:31:07;0.50;;;0.20;;
966;SDS011;56108;48.730;9.304;2023-08-06T08:33:16;0.30;;;0.20;;
966;SDS011;56108;48.730;9.304;2023-08-06T08:35:24;0.30;;;0.30;;
966;SDS011;56108;48.730;9.304;2023-08-06T08:37:32;0.35;;;0.35;;
966;SDS011;56108;48.730;9.304;2023-08-06T08:39:37;0.30;;;0.20;;
966;SDS011;56108;48.730;9.304;2023-08-06T08:41:46;0.30;;;0.20;;
966;SDS011;56108;48.730;9.304;2023-08-06T08:43:59;0.50;;;0.30;;
966;SDS011;56108;48.730;9.304;2023-08-06T08:46:09;0.30;;;0.20;;
966;SDS011;56108;48.730;9.304;2023-08-06T08:48:20;0.30;;;0.20;;
966;SDS011;56108;48.730;9.304;2023-08-06T08:50:29;0.30;;;0.20;;
966;SDS011;56108;48.730;9.304;2023-08-06T08:52:38;0.30;;;0.20;;
966;SDS011;56108;48.730;9.304;2023-08-06T08:54:47;0.40;;;0.20;;
966;SDS011;56108;48.730;9.304;2023-08-06T08:56:57;0.40;;;0.38;;
966;SDS011;56108;48.730;9.304;2023-08-06T08:59:09;0.30;;;0.30;;
966;SDS011;56108;48.730;9.304;2023-08-06T09:01:17;0.40;;;0.28;;
966;SDS011;56108;48.730;9.304;2023-08-06T09:03:30;0.40;;;0.20;;
966;SDS011;56108;48.730;9.304;2023-08-06T09:05:40;0.35;;;0.28;;
966;SDS011;56108;48.730;9.304;2023-08-06T09:07:53;0.50;;;0.43;;
966;SDS011;56108;48.730;9.304;2023-08-06T09:10:03;0.30;;;0.20;;
966;SDS011;56108;48.730;9.304;2023-08-06T09:12:13;0.30;;;0.20;;
966;SDS011;56108;48.730;9.304;2023-08-06T09:14:26;0.30;;;0.25;;
966;SDS011;56108;48.730;9.304;2023-08-06T09:16:34;0.40;;;0.20;;
966;SDS011;56108;48.730;9.304;2023-08-06T09:18:43;0.30;;;0.22;;
966;SDS011;56108;48.730;9.304;2023-08-06T09:20:51;0.43;;;0.30;;
966;SDS011;56108;48.730;9.304;2023-08-06T09:22:57;0.30;;;0.20;;
966;SDS011;56108;48.730;9.304;2023-08-06T09:25:20;0.30;;;0.20;;
966;SDS011;56108;48.730;9.304;2023-08-06T09:27:29;0.30;;;0.20;;
966;SDS011;56108;48.730;9.304;2023-08-06T09:29:42;0.30;;;0.10;;
966;SDS011;56108;48.730;9.304;2023-08-06T09:31:51;0.30;;;0.20;;
966;SDS011;56108;48.730;9.304;2023-08-06T09:34:06;0.30;;;0.20;;
966;SDS011;56108;48.730;9.304;2023-08-06T09:36:18;0.30;;;0.20;;
966;SDS011;56108;48.730;9.304;2023-08-06T09:38:26;0.30;;;0.20;;
966;SDS011;56108;48.730;9.304;2023-08-06T09:40:46;0.30;;;0.20;;
966;SDS011;56108;48.730;9.304;2023-08-06T09:42:55;0.30;;;0.20;;
966;SDS011;56108;48.730;9.304;2023-08-06T09:45:09;0.30;;;0.20;;
966;SDS011;56108;48.730;9.304;2023-08-06T09:47:20;0.30;;;0.28;;
966;SDS011;56108;48.730;9.304;2023-08-06T09:49:42;0.30;;;0.20;;
966;SDS011;56108;48.730;9.304;2023-08-06T09:51:53;0.40;;;0.20;;
966;SDS011;56108;48.730;9.304;2023-08-06T09:54:04;0.30;;;0.30;;
966;SDS011;56108;48.730;9.304;2023-08-06T09:56:28;0.30;;;0.25;;
966;SDS011;56108;48.730;9.304;2023-08-06T09:58:42;0.40;;;0.22;;
966;SDS011;56108;48.730;9.304;2023-08-06T10:00:57;0.30;;;0.20;;
966;SDS011;56108;48.730;9.304;2023-08-06T10:03:08;0.30;;;0.20;;
966;SDS011;56108;48.730;9.304;2023-08-06T10:05:24;0.30;;;0.20;;
966;SDS011;56108;48.730;9.304;2023-08-06T10:07:34;0.30;;;0.30;;
966;SDS011;56108;48.730;9.304;2023-08-06T10:09:44;0.40;;;0.40;;
966;SDS011;56108;48.730;9.304;2023-08-06T10:11:52;0.30;;;0.20;;
966;SDS011;56108;48.730;9.304;2023-08-06T10:14:04;0.30;;;0.20;;
966;SDS011;56108;48.730;9.304;2023-08-06T10:16:19;0.30;;;0.20;;
966;SDS011;56108;48.730;9.304;2023-08-06T10:18:28;0.30;;;0.30;;
966;SDS011;56108;48.730;9.304;2023-08-06T10:20:37;0.30;;;0.30;;
966;SDS011;56108;48.730;9.304;2023-08-06T10:23:01;0.70;;;0.70;;
966;SDS011;56108;48.730;9.304;2023-08-06T10:25:10;1.08;;;0.57;;
966;SDS011;56108;48.730;9.304;2023-08-06T10:27:22;0.77;;;0.77;;
966;SDS011;56108;48.730;9.304;2023-08-06T10:29:35;0.75;;;0.75;;
966;SDS011;56108;48.730;9.304;2023-08-06T10:31:58;0.60;;;0.60;;
966;SDS011;56108;48.730;9.304;2023-08-06T10:34:07;0.30;;;0.20;;
966;SDS011;56108;48.730;9.304;2023-08-06T10:36:15;0.30;;;0.30;;
966;SDS011;56108;48.730;9.304;2023-08-06T10:38:24;0.40;;;0.20;;
966;SDS011;56108;48.730;9.304;2023-08-06T10:40:36;0.50;;;0.40;;
966;SDS011;56108;48.730;9.304;2023-08-06T10:42:44;0.40;;;0.38;;
966;SDS011;56108;48.730;9.304;2023-08-06T10:47:28;0.30;;;0.30;;
966;SDS011;56108;48.730;9.304;2023-08-06T10:49:36;0.40;;;0.30;;
966;SDS011;56108;48.730;9.304;2023-08-06T10:51:46;0.30;;;0.30;;
966;SDS011;56108;48.730;9.304;2023-08-06T10:53:54;0.40;;;0.20;;
966;SDS011;56108;48.730;9.304;2023-08-06T10:56:11;0.30;;;0.20;;
966;SDS011;56108;48.730;9.304;2023-08-06T10:58:20;0.68;;;0.40;;
966;SDS011;56108;48.730;9.304;2023-08-06T11:00:28;0.52;;;0.30;;
966;SDS011;56108;48.730;9.304;2023-08-06T11:02:45;1.52;;;0.20;;
966;SDS011;56108;48.730;9.304;2023-08-06T11:04:56;0.30;;;0.30;;
966;SDS011;56108;48.730;9.304;2023-08-06T11:07:04;0.55;;;0.43;;
966;SDS011;56108;48.730;9.304;2023-08-06T11:09:14;0.60;;;0.30;;
966;SDS011;56108;48.730;9.304;2023-08-06T11:11:23;0.30;;;0.20;;
966;SDS011;56108;48.730;9.304;2023-08-06T11:13:31;0.30;;;0.30;;
966;SDS011;56108;48.730;9.304;2023-08-06T11:15:39;0.30;;;0.30;;
966;SDS011;56108;48.730;9.304;2023-08-06T11:17:50;1.73;;;0.57;;
966;SDS011;56108;48.730;9.304;2023-08-06T11:19:59;0.35;;;0.20;;
966;SDS011;56108;48.730;9.304;2023-08-06T11:22:05;0.90;;;0.43;;
966;SDS011;56108;48.730;9.304;2023-08-06T11:24:13;0.30;;;0.20;;
966;SDS011;56108;48.730;9.304;2023-08-06T11:26:21;0.30;;;0.20;;
966;SDS011;56108;48.730;9.304;2023-08-06T11:28:32;1.00;;;0.45;;
966;SDS011;56108;48.730;9.304;2023-08-06T11:30:40;0.50;;;0.50;;
966;SDS011;56108;48.730;9.304;2023-08-06T11:32:51;1.58;;;0.50;;
966;SDS011;56108;48.730;9.304;2023-08-06T11:35:08;0.40;;;0.30;;
966;SDS011;56108;48.730;9.304;2023-08-06T11:37:20;0.82;;;0.30;;
966;SDS011;56108;48.730;9.304;2023-08-06T11:39:30;1.20;;;0.52;;
966;SDS011;56108;48.730;9.304;2023-08-06T11:41:38;0.30;;;0.20;;
966;SDS011;56108;48.730;9.304;2023-08-06T11:43:49;0.40;;;0.35;;
966;SDS011;56108;48.730;9.304;2023-08-06T11:45:57;0.43;;;0.40;;
966;SDS011;56108;48.730;9.304;2023-08-06T11:48:08;0.40;;;0.30;;
966;SDS011;56108;48.730;9.304;2023-08-06T11:50:21;0.40;;;0.40;;
966;SDS011;56108;48.730;9.304;2023-08-06T11:52:31;4.38;;;0.68;;
966;SDS011;56108;48.730;9.304;2023-08-06T11:54:36;1.50;;;0.57;;
966;SDS011;56108;48.730;9.304;2023-08-06T11:56:44;0.60;;;0.50;;
966;SDS011;56108;48.730;9.304;2023-08-06T11:58:56;0.50;;;0.45;;
966;SDS011;56108;48.730;9.304;2023-08-06T12:01:04;0.73;;;0.73;;
966;SDS011;56108;48.730;9.304;2023-08-06T12:03:17;1.90;;;0.50;;
966;SDS011;56108;48.730;9.304;2023-08-06T12:05:32;0.50;;;0.43;;
966;SDS011;56108;48.730;9.304;2023-08-06T12:07:43;0.70;;;0.70;;
966;SDS011;56108;48.730;9.304;2023-08-06T12:09:50;0.65;;;0.65;;
966;SDS011;56108;48.730;9.304;2023-08-06T12:11:58;4.53;;;0.60;;
966;SDS011;56108;48.730;9.304;2023-08-06T12:14:07;0.95;;;0.82;;
966;SDS011;56108;48.730;9.304;2023-08-06T12:16:16;0.75;;;0.75;;
966;SDS011;56108;48.730;9.304;2023-08-06T12:18:29;0.70;;;0.68;;
966;SDS011;56108;48.730;9.304;2023-08-06T12:20:37;1.02;;;0.70;;
966;SDS011;56108;48.730;9.304;2023-08-06T12:22:46;0.65;;;0.65;;
966;SDS011;56108;48.730;9.304;2023-08-06T12:24:54;0.98;;;0.90;;
966;SDS011;56108;48.730;9.304;2023-08-06T12:27:02;0.80;;;0.80;;
966;SDS011;56108;48.730;9.304;2023-08-06T12:29:10;0.40;;;0.35;;
966;SDS011;56108;48.730;9.304;2023-08-06T12:31:18;0.88;;;0.47;;
966;SDS011;56108;48.730;9.304;2023-08-06T12:33:29;0.70;;;0.70;;
966;SDS011;56108;48.730;9.304;2023-08-06T12:35:38;0.80;;;0.70;;
966;SDS011;56108;48.730;9.304;2023-08-06T12:37:47;0.73;;;0.73;;
966;SDS011;56108;48.730;9.304;2023-08-06T12:39:59;0.98;;;0.98;;
966;SDS011;56108;48.730;9.304;2023-08-06T12:42:28;0.45;;;0.45;;
966;SDS011;56108;48.730;9.304;2023-08-06T12:44:36;0.70;;;0.70;;
966;SDS011;56108;48.730;9.304;2023-08-06T12:46:44;0.70;;;0.70;;
966;SDS011;56108;48.730;9.304;2023-08-06T12:48:55;0.65;;;0.50;;
966;SDS011;56108;48.730;9.304;2023-08-06T12:51:03;0.70;;;0.70;;
966;SDS011;56108;48.730;9.304;2023-08-06T12:53:11;0.60;;;0.60;;
966;SDS011;56108;48.730;9.304;2023-08-06T12:55:22;0.82;;;0.75;;
966;SDS011;56108;48.730;9.304;2023-08-06T12:57:37;0.75;;;0.63;;
966;SDS011;56108;48.730;9.304;2023-08-06T13:00:07;0.60;;;0.60;;
966;SDS011;56108;48.730;9.304;2023-08-06T13:02:16;0.70;;;0.50;;
966;SDS011;56108;48.730;9.304;2023-08-06T13:04:30;3.08;;;0.75;;
966;SDS011;56108;48.730;9.304;2023-08-06T13:06:40;0.95;;;0.77;;
966;SDS011;56108;48.730;9.304;2023-08-06T13:08:47;0.68;;;0.68;;
966;SDS011;56108;48.730;9.304;2023-08-06T13:10:57;0.70;;;0.50;;
966;SDS011;56108;48.730;9.304;2023-08-06T13:13:06;0.70;;;0.70;;
966;SDS011;56108;48.730;9.304;2023-08-06T13:15:15;2.40;;;0.90;;
966;SDS011;56108;48.730;9.304;2023-08-06T13:17:25;1.23;;;1.20;;
966;SDS011;56108;48.730;9.304;2023-08-06T13:19:37;0.90;;;0.90;;
966;SDS011;56108;48.730;9.304;2023-08-06T13:21:58;0.93;;;0.77;;
966;SDS011;56108;48.730;9.304;2023-08-06T13:24:09;0.88;;;0.70;;
966;SDS011;56108;48.730;9.304;2023-08-06T13:26:18;2.25;;;0.77;;
966;SDS011;56108;48.730;9.304;2023-08-06T13:28:33;0.90;;;0.90;;
966;SDS011;56108;48.730;9.304;2023-08-06T13:30:48;0.95;;;0.95;;